createdAt,value
2022-11-04T00:02:01.730Z,1.77
2022-11-04T00:04:30.680Z,1.60
2022-11-04T00:06:59.467Z,1.60
2022-11-04T00:09:29.024Z,1.80
2022-11-04T00:12:15.059Z,1.70
2022-11-04T00:14:45.093Z,1.65
2022-11-04T00:17:25.236Z,1.50
2022-11-04T00:20:11.642Z,1.90
2022-11-04T00:22:58.263Z,1.83
2022-11-04T00:25:44.604Z,2.08
2022-11-04T00:28:31.830Z,1.85
2022-11-04T00:31:24.077Z,1.58
2022-11-04T00:33:52.339Z,1.83
2022-11-04T00:36:21.074Z,2.10
2022-11-04T00:38:49.426Z,1.65
2022-11-04T00:41:27.432Z,1.88
2022-11-04T00:43:56.791Z,2.00
2022-11-04T00:46:26.767Z,1.90
2022-11-04T00:48:55.163Z,2.15
2022-11-04T00:51:23.517Z,2.28
2022-11-04T00:53:52.310Z,2.30
2022-11-04T00:56:20.777Z,2.38
2022-11-04T00:58:50.722Z,3.28
2022-11-04T01:01:20.233Z,3.13
2022-11-04T01:03:50.594Z,3.33
2022-11-04T01:06:19.191Z,3.63
2022-11-04T01:08:47.583Z,3.47
2022-11-04T01:11:16.335Z,3.38
2022-11-04T01:13:44.717Z,3.67
2022-11-04T01:16:13.809Z,3.90
2022-11-04T01:18:42.215Z,3.92
2022-11-04T01:21:13.637Z,3.47
2022-11-04T01:23:42.473Z,4.13
2022-11-04T01:26:11.372Z,4.53
2022-11-04T01:28:39.736Z,4.85
2022-11-04T01:31:08.496Z,4.88
2022-11-04T01:33:37.138Z,5.80
2022-11-04T01:36:05.819Z,5.70
2022-11-04T01:38:35.728Z,5.60
2022-11-04T01:41:04.287Z,6.40
2022-11-04T01:43:45.219Z,5.50
2022-11-04T01:46:15.066Z,5.28
2022-11-04T01:48:43.414Z,5.60
2022-11-04T01:51:11.732Z,4.60
2022-11-04T01:53:43.160Z,4.40
2022-11-04T01:56:13.222Z,4.15
2022-11-04T01:58:43.119Z,4.32
2022-11-04T02:01:12.530Z,4.43
2022-11-04T02:03:42.739Z,5.32
2022-11-04T02:06:11.297Z,5.43
2022-11-04T02:08:41.426Z,4.95
2022-11-04T02:11:09.750Z,5.03
2022-11-04T02:13:37.749Z,5.20
2022-11-04T02:16:12.552Z,6.50
2022-11-04T02:18:50.162Z,6.40
2022-11-04T02:21:37.436Z,5.93
2022-11-04T02:24:33.367Z,4.50
2022-11-04T02:27:12.258Z,4.20
2022-11-04T02:29:56.207Z,3.75
2022-11-04T02:32:29.172Z,4.18
2022-11-04T02:35:03.434Z,3.80
2022-11-04T02:37:36.919Z,4.47
2022-11-04T02:40:10.215Z,3.95
2022-11-04T02:42:41.369Z,4.13
2022-11-04T02:45:16.036Z,4.00
2022-11-04T02:47:45.894Z,3.70
2022-11-04T02:50:16.312Z,2.90
2022-11-04T02:52:50.356Z,3.05
2022-11-04T02:55:22.057Z,2.97
2022-11-04T02:57:52.453Z,2.80
2022-11-04T03:00:22.527Z,2.83
2022-11-04T03:02:53.269Z,3.00
2022-11-04T03:05:23.622Z,2.88
2022-11-04T03:07:52.848Z,2.30
2022-11-04T03:10:24.063Z,2.30
2022-11-04T03:12:55.561Z,3.00
2022-11-04T03:15:28.306Z,2.72
2022-11-04T03:18:00.183Z,3.22
2022-11-04T03:20:29.296Z,2.83
2022-11-04T03:23:00.117Z,2.80
2022-11-04T03:25:30.793Z,2.45
2022-11-04T03:28:02.868Z,3.15
2022-11-04T03:30:35.748Z,2.63
2022-11-04T03:33:07.857Z,2.35
2022-11-04T03:35:36.427Z,2.20
2022-11-04T03:38:04.845Z,2.53
2022-11-04T03:40:33.280Z,2.20
2022-11-04T03:43:02.841Z,2.40
2022-11-04T03:45:31.263Z,2.65
2022-11-04T03:48:01.096Z,2.38
2022-11-04T03:50:30.845Z,1.83
2022-11-04T03:52:59.839Z,1.88
2022-11-04T03:55:32.787Z,1.98
2022-11-04T03:58:05.931Z,1.85
2022-11-04T04:00:37.659Z,1.90
2022-11-04T04:03:09.865Z,2.42
2022-11-04T04:05:40.669Z,2.42
2022-11-04T04:08:21.727Z,2.10
2022-11-04T04:10:54.344Z,2.30
2022-11-04T04:13:26.946Z,2.00
2022-11-04T04:15:57.087Z,2.10
2022-11-04T04:18:29.438Z,2.25
2022-11-04T04:20:59.789Z,2.20
2022-11-04T04:23:47.595Z,2.42
2022-11-04T04:26:34.985Z,2.05
2022-11-04T04:29:05.816Z,1.90
2022-11-04T04:31:50.704Z,1.80
2022-11-04T04:34:21.726Z,2.13
2022-11-04T04:36:53.728Z,2.35
2022-11-04T04:39:42.069Z,2.15
2022-11-04T04:42:28.721Z,2.33
2022-11-04T04:45:06.702Z,2.58
2022-11-04T04:47:43.309Z,2.00
2022-11-04T04:50:15.171Z,2.55
2022-11-04T04:52:44.973Z,2.20
2022-11-04T04:55:14.014Z,2.25
2022-11-04T04:57:42.359Z,1.90
2022-11-04T05:00:11.944Z,2.78
2022-11-04T05:02:40.712Z,2.10
2022-11-04T05:05:09.714Z,2.45
2022-11-04T05:07:39.450Z,2.10
2022-11-04T05:10:08.494Z,2.40
2022-11-04T05:12:54.300Z,2.72
2022-11-04T05:15:22.764Z,2.67
2022-11-04T05:17:55.131Z,2.92
2022-11-04T05:20:23.509Z,3.05
2022-11-04T05:22:53.523Z,3.08
2022-11-04T05:25:21.867Z,2.70
2022-11-04T05:27:50.437Z,3.13
2022-11-04T05:30:18.854Z,2.75
2022-11-04T05:32:47.250Z,3.08
2022-11-04T05:35:15.625Z,3.25
2022-11-04T05:37:43.953Z,2.92
2022-11-04T05:40:14.327Z,2.75
2022-11-04T05:42:42.699Z,2.45
2022-11-04T05:45:11.406Z,2.47
2022-11-04T05:47:39.735Z,2.83
2022-11-04T05:50:08.510Z,2.90
2022-11-04T05:52:36.869Z,2.85
2022-11-04T05:55:05.314Z,2.70
2022-11-04T05:57:35.750Z,3.13
2022-11-04T06:00:04.998Z,2.70
2022-11-04T06:02:33.502Z,3.20
2022-11-04T06:05:01.943Z,2.72
2022-11-04T06:07:30.288Z,2.35
2022-11-04T06:09:58.613Z,3.10
2022-11-04T06:12:26.948Z,3.10
2022-11-04T06:14:56.796Z,3.15
2022-11-04T06:17:25.233Z,2.72
2022-11-04T06:19:53.567Z,3.25
2022-11-04T06:22:22.127Z,2.63
2022-11-04T06:24:50.523Z,2.92
2022-11-04T06:27:19.059Z,3.10
2022-11-04T06:29:47.449Z,2.72
2022-11-04T06:32:18.223Z,3.20
2022-11-04T06:34:46.565Z,3.40
2022-11-04T06:37:14.891Z,2.97
2022-11-04T06:39:43.420Z,3.33
2022-11-04T06:42:11.773Z,3.47
2022-11-04T06:44:40.110Z,3.45
2022-11-04T06:47:08.446Z,3.47
2022-11-04T06:49:38.311Z,2.97
2022-11-04T06:52:06.860Z,3.20
2022-11-04T06:54:35.359Z,2.92
2022-11-04T06:57:04.088Z,2.97
2022-11-04T06:59:32.422Z,3.35
2022-11-04T07:02:00.892Z,3.13
2022-11-04T07:04:29.307Z,3.42
2022-11-04T07:06:59.043Z,2.88
2022-11-04T07:09:27.346Z,2.95
2022-11-04T07:11:55.698Z,2.80
2022-11-04T07:14:24.037Z,2.90
2022-11-04T07:16:52.369Z,2.67
2022-11-04T07:19:20.700Z,3.20
2022-11-04T07:21:49.484Z,3.20
2022-11-04T07:24:19.185Z,2.55
2022-11-04T07:26:47.596Z,2.67
2022-11-04T07:29:15.985Z,3.00
2022-11-04T07:31:45.313Z,3.15
2022-11-04T07:34:13.811Z,3.00
2022-11-04T07:36:42.169Z,2.42
2022-11-04T07:39:10.562Z,3.28
2022-11-04T07:41:40.250Z,3.05
2022-11-04T07:44:08.617Z,3.28
2022-11-04T07:46:37.235Z,2.67
2022-11-04T07:49:05.635Z,2.63
2022-11-04T07:51:34.063Z,2.70
2022-11-04T07:54:02.465Z,2.60
2022-11-04T07:56:30.825Z,2.83
2022-11-04T07:59:00.523Z,2.50
2022-11-04T08:01:28.951Z,2.25
2022-11-04T08:03:57.348Z,2.83
2022-11-04T08:06:26.159Z,2.58
2022-11-04T08:08:54.689Z,3.00
2022-11-04T08:11:25.175Z,2.55
2022-11-04T08:13:53.567Z,2.60
2022-11-04T08:16:23.872Z,2.45
2022-11-04T08:18:53.385Z,2.53
2022-11-04T08:21:22.145Z,2.40
2022-11-04T08:23:51.639Z,2.15
2022-11-04T08:26:20.627Z,2.53
2022-11-04T08:28:49.224Z,2.72
2022-11-04T08:31:18.680Z,2.10
2022-11-04T08:33:48.864Z,2.10
2022-11-04T08:36:19.198Z,2.13
2022-11-04T08:38:48.181Z,3.03
2022-11-04T08:41:17.532Z,2.38
2022-11-04T08:43:46.500Z,3.17
2022-11-04T08:46:15.372Z,3.22
2022-11-04T08:48:44.193Z,2.78
2022-11-04T08:51:16.272Z,2.95
2022-11-04T08:53:44.955Z,2.65
2022-11-04T08:56:14.248Z,2.42
2022-11-04T08:58:42.859Z,2.47
2022-11-04T09:01:12.804Z,3.38
2022-11-04T09:03:42.105Z,2.72
2022-11-04T09:06:11.585Z,2.72
2022-11-04T09:08:43.313Z,3.20
2022-11-04T09:11:12.871Z,2.70
2022-11-04T09:13:41.624Z,2.90
2022-11-04T09:16:10.647Z,2.80
2022-11-04T09:18:39.091Z,2.60
2022-11-04T09:21:08.341Z,2.78
2022-11-04T09:23:36.795Z,3.17
2022-11-04T09:26:08.004Z,3.22
2022-11-04T09:28:36.838Z,3.20
2022-11-04T09:31:08.810Z,3.17
2022-11-04T09:33:37.420Z,2.67
2022-11-04T09:36:06.130Z,2.53
2022-11-04T09:38:34.705Z,2.70
2022-11-04T09:41:03.043Z,3.35
2022-11-04T09:43:39.483Z,2.80
2022-11-04T09:46:08.118Z,3.40
2022-11-04T09:48:39.221Z,2.55
2022-11-04T09:51:20.873Z,3.30
2022-11-04T09:53:59.160Z,2.45
2022-11-04T09:56:29.882Z,2.10
2022-11-04T09:58:59.617Z,2.30
2022-11-04T10:01:30.448Z,1.88
2022-11-04T10:04:14.035Z,1.83
2022-11-04T10:06:46.963Z,1.85
2022-11-04T10:09:22.689Z,2.70
2022-11-04T10:11:57.095Z,2.30
2022-11-04T10:14:38.352Z,1.85
2022-11-04T10:17:12.505Z,1.98
2022-11-04T10:19:45.710Z,2.20
2022-11-04T10:22:18.446Z,2.08
2022-11-04T10:24:51.865Z,2.00
2022-11-04T10:27:23.340Z,1.98
2022-11-04T10:29:56.188Z,1.95
2022-11-04T10:32:28.291Z,1.85
2022-11-04T10:34:59.124Z,2.17
2022-11-04T10:37:28.362Z,1.73
2022-11-04T10:40:04.407Z,1.92
2022-11-04T10:42:34.145Z,1.90
2022-11-04T10:45:03.862Z,2.20
2022-11-04T10:47:35.763Z,1.92
2022-11-04T10:53:04.058Z,2.13
2022-11-04T10:55:37.222Z,2.03
2022-11-04T10:58:05.657Z,2.30
2022-11-04T11:00:36.479Z,2.00
2022-11-04T11:03:05.871Z,1.98
2022-11-04T11:05:34.445Z,2.17
2022-11-04T11:08:03.206Z,2.05
2022-11-04T11:10:32.595Z,2.03
2022-11-04T11:13:03.491Z,1.95
2022-11-04T11:15:34.986Z,2.40
2022-11-04T11:18:15.114Z,2.70
2022-11-04T11:20:44.373Z,2.80
2022-11-04T11:23:30.571Z,2.83
2022-11-04T11:25:59.171Z,2.50
2022-11-04T11:28:28.107Z,2.50
2022-11-04T11:30:58.367Z,2.55
2022-11-04T11:33:29.940Z,2.47
2022-11-04T11:36:00.610Z,2.80
2022-11-04T11:38:29.822Z,2.42
2022-11-04T11:41:23.908Z,2.50
2022-11-04T11:43:54.298Z,2.60
2022-11-04T11:46:24.219Z,2.47
2022-11-04T11:48:54.894Z,2.72
2022-11-04T11:51:31.799Z,3.10
2022-11-04T11:54:05.043Z,2.90
2022-11-04T11:56:59.167Z,3.20
2022-11-04T12:02:30.619Z,3.40
2022-11-04T12:10:51.027Z,2.75
2022-11-04T12:13:26.414Z,3.03
2022-11-04T12:16:06.102Z,4.32
2022-11-04T12:18:43.243Z,3.15
2022-11-04T12:21:16.025Z,3.13
2022-11-04T12:23:48.597Z,3.33
2022-11-04T12:26:22.118Z,3.63
2022-11-04T12:28:55.709Z,3.10
2022-11-04T12:31:29.103Z,3.20
2022-11-04T12:34:06.869Z,3.50
2022-11-04T12:36:44.266Z,3.90
2022-11-04T12:39:21.024Z,3.30
2022-11-04T12:42:19.999Z,3.20
2022-11-04T12:44:51.359Z,3.33
2022-11-04T12:47:25.816Z,3.72
2022-11-04T12:50:04.779Z,4.50
2022-11-04T12:52:42.557Z,4.35
2022-11-04T12:55:21.623Z,4.53
2022-11-04T12:57:53.391Z,4.78
2022-11-04T13:00:27.136Z,3.75
2022-11-04T13:02:59.602Z,3.80
2022-11-04T13:05:38.980Z,4.18
2022-11-04T13:08:14.443Z,3.80
2022-11-04T13:10:45.528Z,4.07
2022-11-04T13:13:17.100Z,3.58
2022-11-04T13:15:48.095Z,3.80
2022-11-04T13:18:19.020Z,3.67
2022-11-04T13:20:50.026Z,3.67
2022-11-04T13:23:22.135Z,3.53
2022-11-04T13:25:50.818Z,3.55
2022-11-04T13:28:22.130Z,3.60
2022-11-04T13:30:54.145Z,3.95
2022-11-04T13:33:26.433Z,3.40
2022-11-04T13:35:57.846Z,3.22
2022-11-04T13:38:30.391Z,2.95
2022-11-04T13:41:06.462Z,3.10
2022-11-04T13:43:41.169Z,3.25
2022-11-04T13:46:19.669Z,3.30
2022-11-04T13:48:56.623Z,3.55
2022-11-04T13:51:25.303Z,3.30
2022-11-04T13:53:56.684Z,2.97
2022-11-04T13:56:35.597Z,3.13
2022-11-04T13:59:18.897Z,2.95
2022-11-04T14:01:47.823Z,2.67
2022-11-04T14:04:30.603Z,3.05
2022-11-04T14:07:00.361Z,2.80
2022-11-04T14:09:50.164Z,3.40
2022-11-04T14:12:34.230Z,2.97
2022-11-04T14:15:13.493Z,2.65
2022-11-04T14:18:00.318Z,2.60
2022-11-04T14:20:31.308Z,2.72
2022-11-04T14:23:00.097Z,2.70
2022-11-04T14:25:30.314Z,2.63
2022-11-04T14:28:01.503Z,2.88
2022-11-04T14:30:44.874Z,2.63
2022-11-04T14:33:24.039Z,2.90
2022-11-04T14:35:53.289Z,2.40
2022-11-04T14:38:28.312Z,2.97
2022-11-04T14:41:11.530Z,2.17
2022-11-04T14:43:43.750Z,2.60
2022-11-04T14:46:14.108Z,3.10
2022-11-04T14:48:46.995Z,2.78
2022-11-04T14:51:23.448Z,2.30
2022-11-04T14:53:52.598Z,2.47
2022-11-04T14:56:24.485Z,2.28
2022-11-04T14:59:01.703Z,3.22
2022-11-04T15:01:35.027Z,2.50
2022-11-04T15:04:12.600Z,3.10
2022-11-04T15:06:54.380Z,2.88
2022-11-04T15:09:24.491Z,3.08
2022-11-04T15:12:11.143Z,2.60
2022-11-04T15:14:40.943Z,3.08
2022-11-04T15:17:09.289Z,4.18
2022-11-04T15:19:37.861Z,3.53
2022-11-04T15:22:07.059Z,4.22
2022-11-04T15:24:36.241Z,3.72
2022-11-04T15:27:06.005Z,3.65
2022-11-04T15:29:34.821Z,3.97
2022-11-04T15:32:06.550Z,3.42
2022-11-04T15:34:35.520Z,3.10
2022-11-04T15:37:05.632Z,3.55
2022-11-04T15:39:35.629Z,3.20
2022-11-04T15:42:23.426Z,3.45
2022-11-04T15:44:52.661Z,3.60
2022-11-04T15:47:26.999Z,3.72
2022-11-04T15:49:56.176Z,3.42
2022-11-04T15:52:26.552Z,3.90
2022-11-04T15:54:55.700Z,4.32
2022-11-04T15:57:25.821Z,5.50
2022-11-04T15:59:57.066Z,4.55
2022-11-04T16:02:29.947Z,5.50
2022-11-04T16:05:05.379Z,5.55
2022-11-04T16:07:36.844Z,5.30
2022-11-04T16:10:09.658Z,5.60
2022-11-04T16:12:38.541Z,5.47
2022-11-04T16:15:07.393Z,5.15
2022-11-04T16:17:45.039Z,5.10
2022-11-04T16:20:19.024Z,4.88
2022-11-04T16:22:47.652Z,5.50
2022-11-04T16:25:21.862Z,4.43
2022-11-04T16:27:50.394Z,5.70
2022-11-04T16:30:19.818Z,5.63
2022-11-04T16:32:50.248Z,5.78
2022-11-04T16:35:21.855Z,6.00
2022-11-04T16:37:50.789Z,6.47
2022-11-04T16:40:19.730Z,6.22
2022-11-04T16:42:49.354Z,6.32
2022-11-04T16:45:26.428Z,6.57
2022-11-04T16:47:57.182Z,6.32
2022-11-04T16:50:26.002Z,6.57
2022-11-04T16:52:54.812Z,6.85
2022-11-04T16:55:23.838Z,6.38
2022-11-04T16:57:53.036Z,7.65
2022-11-04T17:00:22.948Z,8.10
2022-11-04T17:02:52.605Z,8.60
2022-11-04T17:05:22.643Z,7.78
2022-11-04T17:07:54.484Z,8.55
2022-11-04T17:10:27.243Z,8.50
2022-11-04T17:12:55.842Z,8.45
2022-11-04T17:15:24.234Z,8.55
2022-11-04T17:17:52.649Z,8.88
2022-11-04T17:20:23.077Z,9.25
2022-11-04T17:22:52.897Z,9.68
2022-11-04T17:25:22.038Z,9.85
2022-11-04T17:27:50.427Z,10.48
2022-11-04T17:30:19.949Z,11.25
2022-11-04T17:32:48.269Z,10.57
2022-11-04T17:35:16.994Z,11.13
2022-11-04T17:37:46.795Z,11.50
2022-11-04T17:40:16.290Z,10.88
2022-11-04T17:43:05.589Z,10.23
2022-11-04T17:45:38.555Z,11.07
2022-11-04T17:48:07.441Z,10.57
2022-11-04T17:50:37.071Z,10.45
2022-11-04T17:53:06.966Z,12.65
2022-11-04T17:55:39.513Z,13.15
2022-11-04T17:58:07.864Z,13.15
2022-11-04T18:00:36.168Z,13.25
2022-11-04T18:03:06.721Z,13.07
2022-11-04T18:05:35.423Z,13.40
2022-11-04T18:08:04.007Z,12.85
2022-11-04T18:10:33.686Z,12.90
2022-11-04T18:13:01.060Z,14.65
2022-11-04T18:15:30.309Z,13.80
2022-11-04T18:17:58.779Z,13.88
2022-11-04T18:20:27.593Z,13.38
2022-11-04T18:22:55.914Z,13.80
2022-11-04T18:25:24.273Z,14.27
2022-11-04T18:27:53.983Z,14.02
2022-11-04T18:30:22.552Z,13.07
2022-11-04T18:32:51.040Z,14.13
2022-11-04T18:35:19.428Z,15.10
2022-11-04T18:37:47.817Z,14.15
2022-11-04T18:40:16.331Z,14.77
2022-11-04T18:42:44.685Z,13.63
2022-11-04T18:45:14.495Z,14.27
2022-11-04T18:47:42.836Z,14.52
2022-11-04T18:50:11.592Z,13.63
2022-11-04T18:52:40.431Z,14.05
2022-11-04T18:55:09.654Z,14.93
2022-11-04T18:57:37.970Z,13.57
2022-11-04T19:00:06.660Z,14.60
2022-11-04T19:02:36.888Z,13.20
2022-11-04T19:05:05.387Z,13.10
2022-11-04T19:07:33.686Z,14.45
2022-11-04T19:10:02.013Z,13.82
2022-11-04T19:12:47.810Z,14.88
2022-11-04T19:15:16.135Z,14.07
2022-11-04T19:17:45.914Z,17.15
2022-11-04T19:20:14.498Z,15.73
2022-11-04T19:22:42.828Z,15.52
2022-11-04T19:25:11.510Z,16.85
2022-11-04T19:27:39.868Z,15.15
2022-11-04T19:30:08.751Z,15.60
2022-11-04T19:32:37.202Z,15.73
2022-11-04T19:35:07.297Z,15.65
2022-11-04T19:37:35.704Z,15.05
2022-11-04T19:40:04.868Z,16.15
2022-11-04T19:42:51.022Z,16.48
2022-11-04T19:45:19.374Z,16.85
2022-11-04T19:47:47.724Z,16.90
2022-11-04T19:50:18.232Z,17.55
2022-11-04T19:52:46.560Z,16.85
2022-11-04T19:55:14.886Z,17.73
2022-11-04T19:57:43.208Z,16.95
2022-11-04T20:00:12.001Z,17.58
2022-11-04T20:02:40.395Z,17.48
2022-11-04T20:05:09.040Z,18.27
2022-11-04T20:07:39.417Z,18.42
2022-11-04T20:10:08.279Z,17.92
2022-11-04T20:12:54.691Z,17.60
2022-11-04T20:15:23.268Z,17.52
2022-11-04T20:17:51.831Z,17.73
2022-11-04T20:20:20.475Z,17.88
2022-11-04T20:22:50.702Z,17.10
2022-11-04T20:25:19.331Z,16.27
2022-11-04T20:27:47.841Z,15.73
2022-11-04T20:30:19.411Z,15.18
2022-11-04T20:32:47.964Z,14.40
2022-11-04T20:35:16.459Z,14.05
2022-11-04T20:37:45.070Z,14.38
2022-11-04T20:40:15.380Z,12.65
2022-11-04T20:42:47.896Z,12.02
2022-11-04T20:45:16.663Z,12.75
2022-11-04T20:47:44.955Z,10.98
2022-11-04T20:50:13.711Z,10.98
2022-11-04T20:52:42.040Z,9.15
2022-11-04T20:55:11.105Z,9.43
2022-11-04T20:57:40.922Z,9.75
2022-11-04T21:00:09.938Z,8.77
2022-11-04T21:02:40.496Z,9.50
2022-11-04T21:05:09.295Z,8.90
2022-11-04T21:07:38.453Z,8.18
2022-11-04T21:10:07.193Z,8.00
2022-11-04T21:12:35.583Z,8.18
2022-11-04T21:15:25.440Z,7.82
2022-11-04T21:17:53.858Z,8.07
2022-11-04T21:20:22.179Z,7.68
2022-11-04T21:22:50.506Z,7.40
2022-11-04T21:25:18.857Z,7.30
2022-11-04T21:27:47.165Z,7.18
2022-11-04T21:30:17.017Z,7.57
2022-11-04T21:32:45.350Z,7.63
2022-11-04T21:35:13.674Z,7.53
2022-11-04T21:37:41.980Z,7.03
2022-11-04T21:40:11.128Z,7.18
2022-11-04T21:42:39.423Z,7.50
2022-11-04T21:45:08.263Z,6.70
2022-11-04T21:47:37.919Z,7.07
2022-11-04T21:50:06.680Z,6.85
2022-11-04T21:52:35.243Z,8.30
2022-11-04T21:55:03.575Z,8.07
2022-11-04T21:57:31.896Z,7.63
2022-11-04T22:00:00.224Z,7.57
2022-11-04T22:02:28.738Z,8.18
2022-11-04T22:04:58.515Z,6.78
2022-11-04T22:07:40.695Z,7.53
2022-11-04T22:10:09.582Z,7.80
2022-11-04T22:12:37.915Z,8.68
2022-11-04T22:15:06.416Z,7.50
2022-11-04T22:17:34.901Z,7.43
2022-11-04T22:20:04.749Z,7.13
2022-11-04T22:22:33.524Z,7.20
2022-11-04T22:25:04.291Z,6.90
2022-11-04T22:27:32.919Z,6.47
2022-11-04T22:30:01.248Z,7.13
2022-11-04T22:32:29.654Z,7.22
2022-11-04T22:34:57.982Z,6.95
2022-11-04T22:37:27.692Z,7.38
2022-11-04T22:39:56.019Z,6.28
2022-11-04T22:42:24.327Z,6.88
2022-11-04T22:44:52.721Z,6.40
2022-11-04T22:47:21.022Z,6.47
2022-11-04T22:49:49.410Z,7.55
2022-11-04T22:52:17.810Z,7.25
2022-11-04T22:54:47.511Z,6.85
2022-11-04T22:57:15.830Z,6.95
2022-11-04T22:59:44.202Z,7.32
2022-11-04T23:02:12.597Z,6.45
2022-11-04T23:04:41.701Z,6.93
2022-11-04T23:07:10.266Z,6.25
2022-11-04T23:09:59.095Z,6.55
2022-11-04T23:12:46.690Z,7.03
2022-11-04T23:15:32.897Z,7.05
2022-11-04T23:18:18.916Z,6.45
2022-11-04T23:21:07.905Z,7.05
2022-11-04T23:23:54.015Z,7.35
2022-11-04T23:26:26.544Z,6.38
2022-11-04T23:29:15.032Z,7.38
2022-11-04T23:31:44.753Z,7.20
2022-11-04T23:34:30.557Z,7.32
2022-11-04T23:37:14.227Z,7.22
2022-11-04T23:39:43.404Z,7.60
2022-11-04T23:42:18.254Z,8.23
2022-11-04T23:45:06.706Z,8.73
2022-11-04T23:47:53.260Z,8.18
2022-11-04T23:50:39.501Z,8.48
2022-11-04T23:53:25.831Z,8.35
2022-11-04T23:56:12.353Z,8.40
2022-11-04T23:58:58.474Z,9.13
